Time;durP1;ratioP1;P1;durP2;ratioP2;P2;SDS_P1;SDS_P2;PMS_P1;PMS_P2;Temp;Humidity;BMP_temperature;BMP_pressure;BME280_temperature;BME280_humidity;BME280_pressure;Samples;Min_cycle;Max_cycle;Signal;HPM_P1;HPM_P2
2022/07/27 00:00:41;;;;;;;6.88;6.28;;;;;;;;;;5039923;28;20021;-59
2022/07/27 00:03:07;;;;;;;7.30;6.40;;;;;;;;;;5040569;28;20036;-61
2022/07/27 00:05:32;;;;;;;7.25;6.65;;;;;;;;;;5021450;28;20021;-61
2022/07/27 00:07:57;;;;;;;6.68;6.10;;;;;;;;;;5023481;28;20056;-61
2022/07/27 00:10:22;;;;;;;7.60;6.95;;;;;;;;;;5041727;28;20503;-61
2022/07/27 00:12:47;;;;;;;7.35;6.72;;;;;;;;;;5022341;28;20055;-60
2022/07/27 00:15:14;;;;;;;7.80;7.20;;;;;;;;;;5039770;28;20381;-60
2022/07/27 00:17:39;;;;;;;7.35;6.65;;;;;;;;;;5041952;28;20040;-60
2022/07/27 00:20:05;;;;;;;6.95;6.45;;;;;;;;;;5041422;28;20020;-62
2022/07/27 00:22:30;;;;;;;6.97;6.28;;;;;;;;;;5021958;28;20029;-59
2022/07/27 00:24:56;;;;;;;6.55;5.95;;;;;;;;;;5038937;28;20464;-61
2022/07/27 00:27:21;;;;;;;7.28;6.63;;;;;;;;;;5042253;28;20526;-61
2022/07/27 00:29:46;;;;;;;6.28;5.72;;;;;;;;;;5039937;28;20621;-60
2022/07/27 00:32:11;;;;;;;6.50;6.00;;;;;;;;;;5021296;28;20950;-61
2022/07/27 00:34:37;;;;;;;6.00;5.50;;;;;;;;;;5039669;28;20036;-60
2022/07/27 00:37:02;;;;;;;5.78;5.28;;;;;;;;;;5042163;28;20527;-60
2022/07/27 00:39:27;;;;;;;5.90;5.47;;;;;;;;;;5038939;28;20036;-60
2022/07/27 00:41:52;;;;;;;5.95;5.55;;;;;;;;;;5039429;28;20033;-60
2022/07/27 00:44:28;;;;;;;5.82;5.40;;;;;;;;;;5021576;28;20075;-60
2022/07/27 00:46:54;;;;;;;6.45;5.85;;;;;;;;;;5039576;28;20059;-60
2022/07/27 00:49:19;;;;;;;6.32;5.82;;;;;;;;;;5039337;28;20022;-60
2022/07/27 00:51:45;;;;;;;6.03;5.45;;;;;;;;;;5023877;28;20441;-61
2022/07/27 00:54:10;;;;;;;4.95;4.65;;;;;;;;;;5040196;28;20442;-60
2022/07/27 00:56:35;;;;;;;6.60;6.10;;;;;;;;;;5038493;28;20029;-61
2022/07/27 00:59:00;;;;;;;5.88;5.18;;;;;;;;;;5039830;28;20487;-60
2022/07/27 01:01:26;;;;;;;6.18;5.57;;;;;;;;;;5041181;28;20029;-61
2022/07/27 01:03:51;;;;;;;5.18;4.78;;;;;;;;;;5022619;28;20037;-61
2022/07/27 01:06:16;;;;;;;5.40;4.97;;;;;;;;;;5039020;28;20024;-59
2022/07/27 01:08:42;;;;;;;6.43;5.22;;;;;;;;;;5039549;28;20894;-61
2022/07/27 01:11:07;;;;;;;6.15;5.55;;;;;;;;;;5041440;28;20347;-60
2022/07/27 01:13:33;;;;;;;6.95;6.40;;;;;;;;;;5038316;28;20498;-61
2022/07/27 01:15:59;;;;;;;5.53;5.13;;;;;;;;;;5038237;28;20028;-60
2022/07/27 01:18:29;;;;;;;5.78;5.32;;;;;;;;;;5040159;28;20074;-60
2022/07/27 01:20:54;;;;;;;5.30;4.80;;;;;;;;;;5041357;28;20021;-61
2022/07/27 01:23:21;;;;;;;5.40;4.90;;;;;;;;;;5025282;28;20320;-60
2022/07/27 01:25:46;;;;;;;5.60;5.03;;;;;;;;;;5043351;28;20043;-60
2022/07/27 01:28:11;;;;;;;6.10;5.55;;;;;;;;;;5026202;28;20032;-60
2022/07/27 01:30:36;;;;;;;6.28;5.68;;;;;;;;;;5044774;28;20311;-60
2022/07/27 01:33:02;;;;;;;6.22;5.43;;;;;;;;;;5043838;28;20463;-60
2022/07/27 01:35:28;;;;;;;5.70;5.30;;;;;;;;;;5042185;28;20478;-59
2022/07/27 01:37:53;;;;;;;6.90;6.28;;;;;;;;;;5043045;28;20037;-60
2022/07/27 01:40:19;;;;;;;7.07;5.20;;;;;;;;;;5042104;28;20854;-61
2022/07/27 01:42:44;;;;;;;6.00;5.50;;;;;;;;;;5043270;28;20574;-60
2022/07/27 01:45:09;;;;;;;5.93;5.43;;;;;;;;;;5042541;28;20482;-61
2022/07/27 01:47:34;;;;;;;6.13;5.63;;;;;;;;;;5044251;28;20450;-60
2022/07/27 01:50:00;;;;;;;5.97;5.40;;;;;;;;;;5045606;28;20467;-60
2022/07/27 01:52:25;;;;;;;5.93;5.50;;;;;;;;;;5042857;28;20021;-61
2022/07/27 01:54:50;;;;;;;5.47;5.07;;;;;;;;;;5041888;28;20484;-61
2022/07/27 01:57:15;;;;;;;5.93;5.20;;;;;;;;;;5010733;28;20115;-61
2022/07/27 01:59:41;;;;;;;5.30;4.85;;;;;;;;;;5044789;28;20036;-60
2022/07/27 02:02:06;;;;;;;5.78;5.20;;;;;;;;;;5042570;28;20068;-61
2022/07/27 02:04:31;;;;;;;5.80;5.30;;;;;;;;;;5041680;28;20208;-60
2022/07/27 02:06:56;;;;;;;5.72;5.32;;;;;;;;;;5044120;28;20395;-60
2022/07/27 02:09:24;;;;;;;6.00;5.40;;;;;;;;;;5045677;28;20474;-61
2022/07/27 02:14:33;;;;;;;5.95;5.45;;;;;;;;;;5042905;28;20064;-61
2022/07/27 02:16:59;;;;;;;5.85;5.35;;;;;;;;;;5025350;28;20037;-60
2022/07/27 02:19:24;;;;;;;6.05;5.55;;;;;;;;;;5026661;28;20105;-60
2022/07/27 02:21:49;;;;;;;5.45;4.95;;;;;;;;;;5023417;28;20053;-61
2022/07/27 02:24:15;;;;;;;7.15;5.72;;;;;;;;;;5042587;28;20123;-61
2022/07/27 02:26:40;;;;;;;6.15;5.55;;;;;;;;;;5025485;28;20120;-60
2022/07/27 02:29:05;;;;;;;5.97;5.47;;;;;;;;;;5039618;28;20560;-61
2022/07/27 02:31:31;;;;;;;5.40;4.47;;;;;;;;;;5040833;28;20159;-60
2022/07/27 02:33:56;;;;;;;6.03;5.45;;;;;;;;;;5023774;28;20116;-61
2022/07/27 02:36:21;;;;;;;4.93;4.55;;;;;;;;;;5044599;28;20086;-61
2022/07/27 02:38:47;;;;;;;5.50;5.10;;;;;;;;;;5042944;28;20055;-60
2022/07/27 02:41:12;;;;;;;5.47;5.03;;;;;;;;;;5040822;28;20756;-60
2022/07/27 02:43:38;;;;;;;5.72;5.22;;;;;;;;;;5041705;28;20315;-60
2022/07/27 02:46:03;;;;;;;5.55;5.15;;;;;;;;;;5038401;28;20048;-59
2022/07/27 02:48:30;;;;;;;6.35;5.22;;;;;;;;;;5023777;28;20123;-60
2022/07/27 02:50:58;;;;;;;6.18;4.80;;;;;;;;;;5040673;28;20051;-62
2022/07/27 02:53:23;;;;;;;5.97;4.93;;;;;;;;;;5043055;28;20516;-61
2022/07/27 02:55:49;;;;;;;4.90;4.50;;;;;;;;;;5044162;28;20037;-62
2022/07/27 02:58:14;;;;;;;6.68;5.20;;;;;;;;;;5041227;28;20033;-60
2022/07/27 03:00:39;;;;;;;6.38;5.80;;;;;;;;;;5022301;28;20105;-61
2022/07/27 03:03:04;;;;;;;5.30;4.90;;;;;;;;;;5043719;28;20593;-61
2022/07/27 03:05:30;;;;;;;4.97;4.47;;;;;;;;;;5044207;28;20118;-61
2022/07/27 03:07:55;;;;;;;9.07;5.63;;;;;;;;;;5040700;28;20067;-59
2022/07/27 03:10:20;;;;;;;5.57;5.10;;;;;;;;;;5039531;28;20454;-61
2022/07/27 03:12:45;;;;;;;5.65;5.10;;;;;;;;;;5043760;28;20056;-60
2022/07/27 03:15:11;;;;;;;5.82;5.32;;;;;;;;;;5044104;28;20029;-61
2022/07/27 03:17:36;;;;;;;5.22;4.72;;;;;;;;;;5021844;28;20055;-61
2022/07/27 03:20:01;;;;;;;5.53;5.13;;;;;;;;;;5040231;28;20052;-61
2022/07/27 03:22:29;;;;;;;5.32;4.93;;;;;;;;;;5025040;28;20472;-60
2022/07/27 03:24:54;;;;;;;6.10;5.50;;;;;;;;;;5025398;28;20056;-61
2022/07/27 03:27:20;;;;;;;5.40;4.45;;;;;;;;;;5040149;28;20518;-60
2022/07/27 03:29:45;;;;;;;5.78;5.32;;;;;;;;;;5040363;28;20025;-61
2022/07/27 03:32:10;;;;;;;5.38;4.95;;;;;;;;;;5043532;28;20040;-61
2022/07/27 03:34:35;;;;;;;6.32;4.93;;;;;;;;;;5042914;28;20073;-61
2022/07/27 03:37:01;;;;;;;5.05;4.50;;;;;;;;;;5039841;28;20037;-60
2022/07/27 03:39:26;;;;;;;4.97;4.68;;;;;;;;;;5023150;28;20069;-61
2022/07/27 03:41:51;;;;;;;5.75;5.18;;;;;;;;;;5043371;28;20132;-61
2022/07/27 03:44:16;;;;;;;5.30;4.80;;;;;;;;;;5041673;28;20101;-61
2022/07/27 03:46:42;;;;;;;7.50;5.38;;;;;;;;;;5021478;28;20055;-60
2022/07/27 03:49:07;;;;;;;5.25;4.75;;;;;;;;;;5041549;28;20029;-62
2022/07/27 03:51:32;;;;;;;4.60;4.20;;;;;;;;;;5042968;28;20036;-60
2022/07/27 03:53:57;;;;;;;5.18;4.68;;;;;;;;;;5040976;28;20029;-62
2022/07/27 03:56:23;;;;;;;4.90;4.35;;;;;;;;;;5021521;28;20035;-61
2022/07/27 03:58:48;;;;;;;6.43;4.30;;;;;;;;;;5023316;28;20032;-60
2022/07/27 04:01:13;;;;;;;4.88;4.55;;;;;;;;;;5043226;28;20564;-60
2022/07/27 04:03:38;;;;;;;5.03;4.32;;;;;;;;;;5040274;28;20482;-61
2022/07/27 04:06:03;;;;;;;4.38;3.95;;;;;;;;;;5039727;28;20895;-60
2022/07/27 04:08:29;;;;;;;4.22;3.92;;;;;;;;;;5039054;28;20486;-61
2022/07/27 04:10:54;;;;;;;5.13;4.63;;;;;;;;;;5040004;28;20526;-61
2022/07/27 04:13:20;;;;;;;4.15;3.85;;;;;;;;;;5021663;28;20585;-60
2022/07/27 04:15:47;;;;;;;4.97;4.22;;;;;;;;;;5040104;28;20029;-61
2022/07/27 04:18:12;;;;;;;5.93;3.80;;;;;;;;;;5020889;28;20091;-62
2022/07/27 04:20:38;;;;;;;3.85;3.50;;;;;;;;;;5039059;28;20475;-61
2022/07/27 04:23:03;;;;;;;4.15;3.85;;;;;;;;;;5021822;28;20051;-62
2022/07/27 04:25:29;;;;;;;4.32;3.72;;;;;;;;;;5021591;28;20079;-61
2022/07/27 04:27:54;;;;;;;4.45;3.97;;;;;;;;;;5041464;28;20238;-61
2022/07/27 04:30:19;;;;;;;5.13;4.20;;;;;;;;;;5042410;28;20039;-61
2022/07/27 04:32:45;;;;;;;4.70;4.15;;;;;;;;;;5038525;28;20029;-61
2022/07/27 04:35:10;;;;;;;3.72;3.42;;;;;;;;;;5040281;28;20024;-62
2022/07/27 04:37:36;;;;;;;4.20;3.90;;;;;;;;;;5041261;28;20800;-61
2022/07/27 04:40:01;;;;;;;4.47;4.00;;;;;;;;;;5041582;28;20079;-61
2022/07/27 04:42:28;;;;;;;4.03;3.75;;;;;;;;;;5038676;28;20132;-60
2022/07/27 04:44:54;;;;;;;4.57;4.18;;;;;;;;;;5021856;28;20479;-60
2022/07/27 04:47:19;;;;;;;4.47;4.18;;;;;;;;;;5023700;28;20029;-60
2022/07/27 04:49:44;;;;;;;5.43;4.40;;;;;;;;;;5042196;28;20032;-62
2022/07/27 04:52:09;;;;;;;4.18;3.80;;;;;;;;;;5041525;28;20468;-63
2022/07/27 04:54:35;;;;;;;4.00;3.60;;;;;;;;;;5039339;28;20032;-62
2022/07/27 04:57:00;;;;;;;5.28;4.13;;;;;;;;;;5040077;28;20029;-61
2022/07/27 04:59:25;;;;;;;4.95;4.40;;;;;;;;;;5040818;28;20119;-61
2022/07/27 05:01:51;;;;;;;5.18;4.45;;;;;;;;;;5019823;28;20075;-61
2022/07/27 05:04:16;;;;;;;3.85;3.53;;;;;;;;;;5040810;28;20166;-61
2022/07/27 05:06:41;;;;;;;4.25;3.95;;;;;;;;;;5040601;28;20056;-61
2022/07/27 05:09:06;;;;;;;3.63;3.33;;;;;;;;;;5040351;28;20428;-62
2022/07/27 05:11:32;;;;;;;3.65;3.35;;;;;;;;;;5020614;28;20091;-59
2022/07/27 05:13:57;;;;;;;3.78;3.35;;;;;;;;;;5040864;28;20634;-61
2022/07/27 05:16:22;;;;;;;3.70;3.45;;;;;;;;;;5041428;28;20091;-62
2022/07/27 05:18:47;;;;;;;4.85;3.42;;;;;;;;;;5040078;28;20052;-61
2022/07/27 05:21:13;;;;;;;3.97;3.67;;;;;;;;;;5019563;28;20039;-61
2022/07/27 05:23:38;;;;;;;4.50;4.10;;;;;;;;;;5040622;28;20556;-62
2022/07/27 05:26:03;;;;;;;3.42;3.13;;;;;;;;;;5041903;28;20047;-61
2022/07/27 05:28:29;;;;;;;4.05;3.75;;;;;;;;;;5039052;28;20032;-61
2022/07/27 05:30:54;;;;;;;5.10;3.80;;;;;;;;;;5037716;28;20028;-62
2022/07/27 05:33:19;;;;;;;4.00;3.60;;;;;;;;;;5041526;28;20062;-63
2022/07/27 05:35:44;;;;;;;4.13;3.83;;;;;;;;;;5041540;28;20416;-62
2022/07/27 05:38:10;;;;;;;3.60;3.40;;;;;;;;;;5020046;28;20488;-62
2022/07/27 05:40:35;;;;;;;3.58;3.38;;;;;;;;;;5000619;28;20112;-63
2022/07/27 05:43:00;;;;;;;4.72;4.03;;;;;;;;;;5019672;28;20079;-62
2022/07/27 05:45:25;;;;;;;4.03;3.72;;;;;;;;;;5018802;28;20120;-62
2022/07/27 05:47:53;;;;;;;3.78;3.53;;;;;;;;;;5018095;28;20365;-62
2022/07/27 05:50:18;;;;;;;4.93;4.15;;;;;;;;;;5019017;28;20120;-62
2022/07/27 05:52:43;;;;;;;5.10;4.45;;;;;;;;;;5020519;28;20030;-63
2022/07/27 05:55:09;;;;;;;4.40;4.10;;;;;;;;;;5019018;28;20115;-64
2022/07/27 05:57:35;;;;;;;4.38;4.07;;;;;;;;;;5016840;28;20049;-64
2022/07/27 06:00:00;;;;;;;4.80;4.32;;;;;;;;;;5017344;28;20032;-66
2022/07/27 06:02:26;;;;;;;4.05;3.75;;;;;;;;;;5016480;28;20430;-65
2022/07/27 06:04:51;;;;;;;5.57;4.32;;;;;;;;;;5020787;28;20029;-67
2022/07/27 06:10:01;;;;;;;4.70;4.38;;;;;;;;;;5021927;28;20040;-64
2022/07/27 06:12:26;;;;;;;4.63;4.10;;;;;;;;;;5011470;28;20443;-64
2022/07/27 06:14:52;;;;;;;4.15;3.55;;;;;;;;;;5022681;28;20606;-64
2022/07/27 06:17:17;;;;;;;4.88;3.97;;;;;;;;;;5021346;28;20613;-64
2022/07/27 06:19:42;;;;;;;4.38;3.97;;;;;;;;;;5022105;28;20036;-64
2022/07/27 06:22:07;;;;;;;4.35;3.78;;;;;;;;;;5021742;28;20026;-64
2022/07/27 06:24:33;;;;;;;4.55;4.15;;;;;;;;;;5021575;28;20033;-64
2022/07/27 06:26:58;;;;;;;5.68;4.28;;;;;;;;;;5021643;28;20478;-64
2022/07/27 06:29:23;;;;;;;4.93;4.53;;;;;;;;;;5006624;28;20247;-65
2022/07/27 06:31:49;;;;;;;4.10;3.53;;;;;;;;;;5021749;28;20490;-65
2022/07/27 06:34:14;;;;;;;3.90;3.70;;;;;;;;;;5008860;28;20034;-64
2022/07/27 06:36:41;;;;;;;5.07;4.40;;;;;;;;;;5019981;28;20032;-64
2022/07/27 06:39:07;;;;;;;4.47;4.13;;;;;;;;;;5021452;28;20108;-64
2022/07/27 06:41:33;;;;;;;5.40;4.90;;;;;;;;;;5041092;28;20537;-67
2022/07/27 06:44:01;;;;;;;4.03;3.72;;;;;;;;;;5040948;28;20322;-67
2022/07/27 06:46:26;;;;;;;4.28;3.97;;;;;;;;;;5039087;28;20037;-67
2022/07/27 06:48:52;;;;;;;4.30;3.95;;;;;;;;;;5023954;28;20082;-67
2022/07/27 06:51:17;;;;;;;4.43;4.03;;;;;;;;;;5040910;28;20249;-67
2022/07/27 06:53:42;;;;;;;4.28;3.85;;;;;;;;;;5039719;28;20798;-67
2022/07/27 06:56:08;;;;;;;5.28;4.35;;;;;;;;;;5024797;28;20037;-66
2022/07/27 06:58:36;;;;;;;5.55;4.68;;;;;;;;;;5042020;28;20037;-67
2022/07/27 07:01:02;;;;;;;4.28;3.80;;;;;;;;;;5042910;28;20058;-67
2022/07/27 07:03:28;;;;;;;4.78;4.28;;;;;;;;;;5037263;28;20082;-66
2022/07/27 07:05:53;;;;;;;4.50;4.22;;;;;;;;;;5022434;28;20410;-67
2022/07/27 07:08:19;;;;;;;4.20;3.80;;;;;;;;;;5024493;28;20025;-65
2022/07/27 07:10:44;;;;;;;5.35;4.95;;;;;;;;;;5042549;28;20025;-66
2022/07/27 07:13:10;;;;;;;4.35;4.05;;;;;;;;;;5040448;28;20057;-65
2022/07/27 07:15:35;;;;;;;4.80;4.10;;;;;;;;;;5023460;28;20115;-65
2022/07/27 07:18:02;;;;;;;4.63;4.15;;;;;;;;;;5043223;28;20065;-64
2022/07/27 07:20:27;;;;;;;5.10;4.30;;;;;;;;;;5041350;28;20056;-64
2022/07/27 07:22:53;;;;;;;4.53;3.90;;;;;;;;;;5036378;28;20112;-65
2022/07/27 07:25:18;;;;;;;5.13;4.38;;;;;;;;;;5022515;28;20033;-64
2022/07/27 07:27:43;;;;;;;7.55;5.22;;;;;;;;;;5039923;28;20471;-65
2022/07/27 07:30:11;;;;;;;6.05;5.45;;;;;;;;;;5041391;28;20029;-65
2022/07/27 07:32:37;;;;;;;6.82;5.55;;;;;;;;;;5041787;28;20032;-66
2022/07/27 07:35:03;;;;;;;6.43;5.35;;;;;;;;;;5039199;28;20029;-65
2022/07/27 07:37:28;;;;;;;6.55;5.05;;;;;;;;;;5022210;28;20040;-65
2022/07/27 07:39:53;;;;;;;5.63;5.13;;;;;;;;;;5040632;28;20563;-65
2022/07/27 07:42:19;;;;;;;6.68;5.63;;;;;;;;;;5042810;28;20044;-67
2022/07/27 07:44:44;;;;;;;5.03;4.60;;;;;;;;;;5022471;28;20033;-66
2022/07/27 07:47:09;;;;;;;5.53;5.03;;;;;;;;;;5021761;28;20032;-65
2022/07/27 07:49:35;;;;;;;5.13;4.60;;;;;;;;;;5023443;28;20496;-64
2022/07/27 07:52:00;;;;;;;5.28;4.32;;;;;;;;;;5040617;28;20033;-65
2022/07/27 07:54:26;;;;;;;8.32;5.82;;;;;;;;;;5021784;28;20033;-65
2022/07/27 07:56:51;;;;;;;6.50;5.10;;;;;;;;;;5039746;28;20029;-67
2022/07/27 07:59:17;;;;;;;5.38;5.07;;;;;;;;;;5040187;28;20029;-65
2022/07/27 08:01:42;;;;;;;4.57;4.18;;;;;;;;;;5040255;28;20376;-65
2022/07/27 08:04:07;;;;;;;4.55;4.25;;;;;;;;;;5039097;28;20025;-65
2022/07/27 08:06:32;;;;;;;5.07;4.78;;;;;;;;;;5040142;28;20020;-65
2022/07/27 08:08:58;;;;;;;4.72;4.35;;;;;;;;;;5041668;28;20033;-65
2022/07/27 08:11:23;;;;;;;5.00;4.70;;;;;;;;;;5039702;28;20025;-65
2022/07/27 08:13:49;;;;;;;4.90;4.60;;;;;;;;;;5038544;28;20023;-66
2022/07/27 08:16:15;;;;;;;4.60;4.30;;;;;;;;;;5040042;28;20036;-65
2022/07/27 08:18:40;;;;;;;4.88;4.45;;;;;;;;;;5024438;28;20088;-65
2022/07/27 08:21:05;;;;;;;4.93;4.63;;;;;;;;;;5040488;28;20452;-65
2022/07/27 08:23:31;;;;;;;5.68;4.53;;;;;;;;;;5038514;28;20438;-65
2022/07/27 08:25:57;;;;;;;5.43;5.03;;;;;;;;;;5039559;28;20020;-64
2022/07/27 08:28:22;;;;;;;6.00;5.53;;;;;;;;;;5038855;28;20534;-65
2022/07/27 08:30:47;;;;;;;5.43;5.10;;;;;;;;;;5037789;28;20063;-65
2022/07/27 08:33:12;;;;;;;4.70;4.43;;;;;;;;;;5036972;28;20017;-66
2022/07/27 08:35:40;;;;;;;4.95;4.65;;;;;;;;;;5035358;28;20646;-69
2022/07/27 08:38:08;;;;;;;5.03;4.63;;;;;;;;;;5024440;28;20048;-65
2022/07/27 08:40:33;;;;;;;5.57;5.18;;;;;;;;;;5040577;28;20072;-65
2022/07/27 08:42:59;;;;;;;5.55;5.13;;;;;;;;;;5039092;28;20155;-65
2022/07/27 08:45:25;;;;;;;6.07;5.57;;;;;;;;;;5039147;28;20758;-65
2022/07/27 08:47:50;;;;;;;7.25;6.55;;;;;;;;;;5038647;28;20464;-65
2022/07/27 08:50:22;;;;;;;6.47;5.80;;;;;;;;;;5039962;28;20055;-65
2022/07/27 08:52:55;;;;;;;6.30;5.70;;;;;;;;;;5038519;28;20116;-65
2022/07/27 08:55:21;;;;;;;5.50;5.00;;;;;;;;;;5021930;28;20068;-65
2022/07/27 08:57:46;;;;;;;6.72;6.25;;;;;;;;;;5039216;28;20040;-65
2022/07/27 09:00:12;;;;;;;5.90;5.45;;;;;;;;;;5038275;28;20036;-64
2022/07/27 09:02:39;;;;;;;6.07;5.55;;;;;;;;;;5019707;28;20512;-64
2022/07/27 09:05:05;;;;;;;6.20;5.70;;;;;;;;;;5019440;28;20561;-65
2022/07/27 09:07:30;;;;;;;6.30;5.90;;;;;;;;;;5023355;28;20029;-64
2022/07/27 09:09:56;;;;;;;6.18;5.68;;;;;;;;;;5020660;28;20025;-64
2022/07/27 09:12:26;;;;;;;6.30;5.72;;;;;;;;;;5020456;28;20032;-64
2022/07/27 09:15:01;;;;;;;8.20;5.53;;;;;;;;;;5038420;28;20032;-65
2022/07/27 09:17:26;;;;;;;6.70;6.05;;;;;;;;;;5038890;28;20025;-65
2022/07/27 09:19:53;;;;;;;6.30;5.63;;;;;;;;;;5037019;28;20013;-65
2022/07/27 09:22:36;;;;;;;6.85;5.75;;;;;;;;;;5038255;28;20020;-65
2022/07/27 09:25:02;;;;;;;6.93;6.32;;;;;;;;;;5039866;28;20454;-66
2022/07/27 09:27:30;;;;;;;6.18;5.78;;;;;;;;;;5036222;28;20044;-66
2022/07/27 09:30:03;;;;;;;5.97;5.47;;;;;;;;;;5037674;28;20021;-66
2022/07/27 09:32:29;;;;;;;7.05;6.45;;;;;;;;;;5038234;28;20032;-65
2022/07/27 09:34:54;;;;;;;6.15;5.72;;;;;;;;;;5040364;28;20021;-64
2022/07/27 09:37:27;;;;;;;6.18;5.70;;;;;;;;;;5038824;28;20045;-61
2022/07/27 09:40:09;;;;;;;5.68;5.28;;;;;;;;;;5037124;28;20045;-61
2022/07/27 09:42:34;;;;;;;6.25;5.82;;;;;;;;;;5040064;28;20017;-61
2022/07/27 09:44:59;;;;;;;6.47;5.88;;;;;;;;;;5044004;28;20383;-61
2022/07/27 09:47:26;;;;;;;5.78;5.38;;;;;;;;;;5007414;28;20479;-61
2022/07/27 09:49:52;;;;;;;6.32;5.72;;;;;;;;;;5023758;28;20028;-62
2022/07/27 09:52:21;;;;;;;5.68;5.28;;;;;;;;;;5026059;28;20453;-61
2022/07/27 09:54:47;;;;;;;6.70;6.20;;;;;;;;;;5043869;28;20028;-61
2022/07/27 09:57:12;;;;;;;6.40;5.80;;;;;;;;;;5023340;28;20044;-63
2022/07/27 09:59:37;;;;;;;6.10;5.60;;;;;;;;;;5040035;28;20479;-61
2022/07/27 10:02:03;;;;;;;6.50;6.10;;;;;;;;;;5043548;28;20036;-64
2022/07/27 10:04:31;;;;;;;7.10;6.43;;;;;;;;;;5025937;28;20036;-63
2022/07/27 10:06:56;;;;;;;7.97;7.30;;;;;;;;;;5040373;28;20136;-64
2022/07/27 10:09:22;;;;;;;6.43;5.93;;;;;;;;;;5040140;28;20036;-62
2022/07/27 10:11:48;;;;;;;6.05;5.65;;;;;;;;;;5040951;28;20029;-64
2022/07/27 10:14:13;;;;;;;6.00;5.53;;;;;;;;;;5023274;28;20024;-65
2022/07/27 10:16:39;;;;;;;6.68;5.72;;;;;;;;;;5040952;28;20036;-64
2022/07/27 10:19:12;;;;;;;7.85;7.25;;;;;;;;;;5041144;28;20152;-63
2022/07/27 10:21:38;;;;;;;6.00;5.63;;;;;;;;;;5043982;28;20122;-63
2022/07/27 10:24:05;;;;;;;5.93;5.38;;;;;;;;;;5042407;28;20518;-64
2022/07/27 10:26:32;;;;;;;5.68;5.20;;;;;;;;;;5040383;28;20439;-67
2022/07/27 10:28:57;;;;;;;6.22;5.63;;;;;;;;;;5042500;28;20025;-66
2022/07/27 10:31:27;;;;;;;6.38;5.88;;;;;;;;;;5043451;28;20048;-68
2022/07/27 10:33:53;;;;;;;6.40;5.95;;;;;;;;;;5041135;28;20025;-68
2022/07/27 10:36:22;;;;;;;5.95;5.55;;;;;;;;;;5040523;28;20013;-65
2022/07/27 10:38:48;;;;;;;7.03;6.40;;;;;;;;;;5041999;28;20060;-65
2022/07/27 10:41:20;;;;;;;6.47;5.85;;;;;;;;;;5042956;28;20066;-65
2022/07/27 10:43:45;;;;;;;8.23;6.45;;;;;;;;;;5022525;28;20068;-65
2022/07/27 10:46:17;;;;;;;6.95;6.00;;;;;;;;;;5040951;28;20127;-68
2022/07/27 10:48:43;;;;;;;6.20;5.70;;;;;;;;;;5042750;28;20109;-64
2022/07/27 10:51:08;;;;;;;9.85;7.90;;;;;;;;;;5043221;28;20353;-65
2022/07/27 10:53:36;;;;;;;7.00;6.40;;;;;;;;;;5022336;28;20607;-64
2022/07/27 10:56:02;;;;;;;6.57;5.50;;;;;;;;;;5039817;28;20033;-64
2022/07/27 10:58:27;;;;;;;7.38;6.72;;;;;;;;;;5042219;28;20220;-69
2022/07/27 11:00:52;;;;;;;6.05;5.65;;;;;;;;;;5025386;28;20421;-66
2022/07/27 11:03:29;;;;;;;6.97;6.47;;;;;;;;;;5039370;28;20032;-65
2022/07/27 11:06:10;;;;;;;7.07;6.57;;;;;;;;;;5014460;28;20028;-61
2022/07/27 11:08:39;;;;;;;7.68;7.00;;;;;;;;;;5042150;28;20033;-71
2022/07/27 11:11:05;;;;;;;6.75;6.15;;;;;;;;;;5040863;28;20146;-71
2022/07/27 11:13:31;;;;;;;11.48;7.18;;;;;;;;;;5039600;28;20827;-69
2022/07/27 11:16:05;;;;;;;8.82;6.50;;;;;;;;;;5041877;28;20045;-71
2022/07/27 11:18:32;;;;;;;11.52;9.02;;;;;;;;;;5041755;28;20071;-70
2022/07/27 11:21:17;;;;;;;9.60;7.28;;;;;;;;;;5021837;28;20037;-71
2022/07/27 11:23:44;;;;;;;7.15;6.30;;;;;;;;;;5039014;28;20162;-69
2022/07/27 11:26:09;;;;;;;6.65;6.15;;;;;;;;;;5043552;28;20029;-70
2022/07/27 11:28:35;;;;;;;7.10;6.45;;;;;;;;;;5024208;28;20551;-71
2022/07/27 11:31:02;;;;;;;6.40;5.90;;;;;;;;;;5038999;28;20052;-68
2022/07/27 11:33:27;;;;;;;7.20;6.60;;;;;;;;;;5040525;28;20136;-68
2022/07/27 11:35:57;;;;;;;7.63;6.90;;;;;;;;;;5042719;28;20025;-69
2022/07/27 11:38:22;;;;;;;6.82;6.32;;;;;;;;;;5042013;28;20073;-69
2022/07/27 11:40:49;;;;;;;8.63;7.05;;;;;;;;;;5001761;28;20060;-70
2022/07/27 11:43:34;;;;;;;7.18;6.63;;;;;;;;;;5020880;28;20071;-70
2022/07/27 11:46:16;;;;;;;7.07;6.47;;;;;;;;;;5023646;28;20592;-69
2022/07/27 11:48:46;;;;;;;8.00;6.97;;;;;;;;;;5021747;28;20502;-69
2022/07/27 11:51:13;;;;;;;7.68;6.97;;;;;;;;;;5019857;28;20021;-69
2022/07/27 11:53:38;;;;;;;8.13;7.43;;;;;;;;;;5037565;28;20090;-70
2022/07/27 11:56:04;;;;;;;7.15;6.50;;;;;;;;;;5023027;28;20447;-70
2022/07/27 11:58:29;;;;;;;11.90;6.15;;;;;;;;;;5020705;28;20088;-68
2022/07/27 12:00:54;;;;;;;8.32;6.20;;;;;;;;;;5019474;28;20136;-69
2022/07/27 12:03:22;;;;;;;8.82;7.50;;;;;;;;;;5021016;28;20032;-69
2022/07/27 12:05:48;;;;;;;7.55;6.57;;;;;;;;;;5015481;28;20025;-69
2022/07/27 12:08:14;;;;;;;7.28;6.55;;;;;;;;;;5020001;28;20565;-69
2022/07/27 12:10:55;;;;;;;7.05;6.43;;;;;;;;;;5017887;28;20025;-68
2022/07/27 12:13:20;;;;;;;7.93;7.00;;;;;;;;;;5022784;28;20025;-70
2022/07/27 12:15:54;;;;;;;7.40;6.70;;;;;;;;;;5022473;28;20500;-70
2022/07/27 12:18:20;;;;;;;7.00;6.50;;;;;;;;;;5019520;28;20436;-69
2022/07/27 12:20:47;;;;;;;8.18;7.10;;;;;;;;;;5002225;28;20076;-69
2022/07/27 12:23:12;;;;;;;8.05;6.80;;;;;;;;;;5022377;28;20029;-68
2022/07/27 12:25:39;;;;;;;8.57;7.78;;;;;;;;;;5020572;28;20044;-69
2022/07/27 12:28:11;;;;;;;8.20;7.47;;;;;;;;;;5017275;28;20026;-66
2022/07/27 12:30:37;;;;;;;9.00;7.22;;;;;;;;;;5009292;28;20389;-66
2022/07/27 12:33:04;;;;;;;8.65;7.72;;;;;;;;;;5021447;28;20021;-66
2022/07/27 12:35:32;;;;;;;8.88;8.13;;;;;;;;;;5020424;28;20036;-67
2022/07/27 12:37:57;;;;;;;10.10;9.00;;;;;;;;;;5016975;28;20490;-67
2022/07/27 12:40:23;;;;;;;8.70;8.00;;;;;;;;;;5018371;28;20060;-68
2022/07/27 12:42:54;;;;;;;8.73;8.10;;;;;;;;;;5021380;28;20568;-67
2022/07/27 12:45:20;;;;;;;9.48;8.60;;;;;;;;;;5018945;28;20628;-67
2022/07/27 12:47:46;;;;;;;9.13;8.40;;;;;;;;;;5014073;28;20029;-68
2022/07/27 12:50:16;;;;;;;8.43;7.72;;;;;;;;;;5019306;28;20490;-67
2022/07/27 12:52:49;;;;;;;9.65;7.13;;;;;;;;;;5021329;28;20109;-68
2022/07/27 12:55:16;;;;;;;8.45;7.70;;;;;;;;;;5017867;28;20033;-66
2022/07/27 12:57:42;;;;;;;9.48;7.28;;;;;;;;;;5018446;28;20137;-67
2022/07/27 13:00:09;;;;;;;9.48;8.18;;;;;;;;;;5020547;28;20391;-65
2022/07/27 13:02:34;;;;;;;8.13;7.22;;;;;;;;;;5020686;28;20013;-67
2022/07/27 13:05:00;;;;;;;8.07;7.38;;;;;;;;;;5014430;28;20067;-65
2022/07/27 13:07:25;;;;;;;8.20;7.40;;;;;;;;;;5017074;28;20456;-67
2022/07/27 13:09:50;;;;;;;7.03;6.43;;;;;;;;;;5017768;28;20511;-66
2022/07/27 13:12:16;;;;;;;8.05;7.28;;;;;;;;;;5018714;28;20045;-67
2022/07/27 13:14:41;;;;;;;6.97;6.28;;;;;;;;;;5017553;28;20064;-67
2022/07/27 13:17:06;;;;;;;6.20;5.50;;;;;;;;;;5019174;28;20101;-66
2022/07/27 13:19:32;;;;;;;6.60;6.00;;;;;;;;;;5024487;28;20044;-68
2022/07/27 13:21:57;;;;;;;6.82;6.32;;;;;;;;;;5023279;28;20025;-67
2022/07/27 13:24:23;;;;;;;7.22;6.53;;;;;;;;;;5019580;28;20636;-67
2022/07/27 13:26:48;;;;;;;6.40;5.93;;;;;;;;;;5022668;28;20034;-67
2022/07/27 13:29:14;;;;;;;7.63;6.85;;;;;;;;;;5023993;28;20033;-66
2022/07/27 13:31:40;;;;;;;10.32;6.88;;;;;;;;;;5039175;28;20091;-66
2022/07/27 13:34:06;;;;;;;7.47;6.15;;;;;;;;;;5020950;28;20033;-67
2022/07/27 13:36:32;;;;;;;7.00;6.30;;;;;;;;;;5019852;28;20025;-65
2022/07/27 13:38:57;;;;;;;7.88;6.80;;;;;;;;;;5022217;28;20025;-65
2022/07/27 13:41:22;;;;;;;7.78;7.18;;;;;;;;;;5037232;28;20817;-67
2022/07/27 13:43:47;;;;;;;8.23;7.43;;;;;;;;;;5041597;28;20177;-65
2022/07/27 13:46:13;;;;;;;9.38;8.48;;;;;;;;;;5004549;28;20036;-66
2022/07/27 13:48:38;;;;;;;7.82;7.13;;;;;;;;;;5043593;28;20036;-65
2022/07/27 13:51:03;;;;;;;7.20;6.32;;;;;;;;;;5041366;28;20029;-65
2022/07/27 13:53:29;;;;;;;7.75;6.55;;;;;;;;;;5041939;28;20518;-66
2022/07/27 13:55:55;;;;;;;7.88;7.00;;;;;;;;;;5044309;28;20103;-66
2022/07/27 13:58:21;;;;;;;8.40;7.15;;;;;;;;;;5043564;28;20040;-65
2022/07/27 14:00:48;;;;;;;7.95;7.20;;;;;;;;;;5023986;28;20021;-65
2022/07/27 14:03:13;;;;;;;10.68;7.95;;;;;;;;;;5024318;28;20035;-65
2022/07/27 14:05:39;;;;;;;7.90;7.30;;;;;;;;;;5043651;28;20037;-66
2022/07/27 14:08:04;;;;;;;9.27;8.30;;;;;;;;;;5043569;28;20021;-64
2022/07/27 14:10:30;;;;;;;9.32;8.50;;;;;;;;;;5022709;28;20467;-68
2022/07/27 14:12:57;;;;;;;8.73;7.82;;;;;;;;;;5041715;28;20083;-69
2022/07/27 14:15:22;;;;;;;7.28;6.65;;;;;;;;;;5044031;28;20599;-68
2022/07/27 14:17:47;;;;;;;8.32;7.32;;;;;;;;;;5024251;28;20507;-68
2022/07/27 14:20:12;;;;;;;7.93;6.90;;;;;;;;;;5040565;28;20025;-68
2022/07/27 14:22:38;;;;;;;10.77;7.03;;;;;;;;;;5042541;28;20139;-73
2022/07/27 14:25:03;;;;;;;8.48;7.82;;;;;;;;;;5043704;28;20421;-72
2022/07/27 14:27:29;;;;;;;7.80;7.10;;;;;;;;;;5024144;28;20032;-72
2022/07/27 14:29:54;;;;;;;7.28;6.28;;;;;;;;;;5039608;28;20029;-63
2022/07/27 14:32:19;;;;;;;9.90;7.68;;;;;;;;;;5042960;28;20025;-68
2022/07/27 14:34:45;;;;;;;8.20;7.40;;;;;;;;;;5025224;28;20542;-65
2022/07/27 14:37:10;;;;;;;7.53;6.78;;;;;;;;;;5040592;28;20588;-62
2022/07/27 14:39:35;;;;;;;8.02;7.30;;;;;;;;;;5039021;28;20382;-62
2022/07/27 14:42:01;;;;;;;7.65;6.95;;;;;;;;;;5023602;28;20368;-63